Archie Moore (175, 176) Station Data

Red Flag Warning: No
Fire Weather Zone: 250
SDGE Region: Ramona
Lat/Lon: 33.04/-116.958

Observations

Time Wind Speed/Gust Temp(F) RH Fuel Moist Fuel Temp(F) Dewpt(F) Tmax(F) Tmin(F) Accum Precip 10-min Precip SL Press(mb)
2/27 11:40pm 248 8 G 15 53° 97% - - 52° 56.8° 46.4° - - 1009.0
2/27 11:20pm 257 4 G 7 53° 97% - - 52° 56.8° 46.4° - - 1008.0
2/27 11:10pm 263 5 G 9 52° 97% - - 52° 56.8° 46.4° - - 1008.0
2/27 11:00pm 266 6 G 9 53° 97% - - 52° 56.8° 46.4° - - 1008.0
2/27 10:50pm 277 6 G 10 53° 97% - - 52° 56.8° 46.4° - - 1008.0
2/27 10:40pm 273 7 G 11 53° 97% - - 52° 56.8° 46.4° - - 1009.0
2/27 10:30pm 272 7 G 10 53° 97% - - 52° 56.8° 46.4° - - 1008.0
2/27 10:20pm 264 8 G 15 53° 97% - - 52° 56.8° 46.4° - - 1008.0
2/27 10:10pm 261 10 G 16 54° 97% - - 53° 56.8° 46.4° - - 1008.0
2/27 10:00pm 237 15 G 28 55° 93% - - 53° 56.8° 46.4° - - 1008.0
2/27 9:50pm 206 19 G 35 55° 88% - - 51° 56.8° 46.4° - - 1007.0
2/27 9:40pm 201 20 G 32 55° 92% - - 52° 56.8° 46.4° - - 1007.0
2/27 9:30pm 212 16 G 26 54° 96% - - 53° 56.8° 46.4° - - 1008.0
2/27 9:20pm 222 14 G 26 54° 96% - - 53° 56.8° 46.4° - - 1007.0
2/27 9:10pm 219 13 G 20 54° 95% - - 53° 56.8° 46.4° - - 1007.0
2/27 9:00pm 211 17 G 28 55° 94% - - 53° 56.8° 46.4° - - 1007.0
2/27 8:50pm 215 15 G 25 55° 94% - - 53° 56.8° 46.4° - - 1007.0
2/27 8:40pm 205 19 G 31 55° 91% - - 52° 56.8° 46.4° - - 1007.0
2/27 8:30pm 210 16 G 30 55° 90% - - 52° 56.8° 46.4° - - 1007.0
2/27 8:20pm 209 18 G 27 55° 92% - - 53° 56.8° 46.4° - - 1007.0
2/27 8:10pm 210 16 G 24 55° 95% - - 53° 56.8° 46.4° - - 1007.0
2/27 8:00pm 212 12 G 21 55° 94% - - 53° 56.8° 46.4° - - 1007.0
2/27 7:50pm 203 12 G 19 55° 95% - - 54° 56.8° 46.4° - - 1007.0
2/27 7:40pm 211 8 G 14 55° 96% - - 54° 56.8° 46.4° - - 1007.0
2/27 7:30pm 218 11 G 16 55° 96% - - 54° 56.8° 46.4° - - 1008.0
2/27 7:20pm 217 13 G 19 55° 95% - - 54° 56.8° 46.4° - - 1007.0
2/27 7:10pm 221 10 G 17 55° 95% - - 54° 56.8° 46.4° - - 1008.0
2/27 7:00pm 216 14 G 26 55° 92% - - 53° 56.8° 46.4° - - 1007.0
2/27 6:50pm 222 10 G 17 55° 95% - - 54° 56.8° 46.4° - - 1007.0
2/27 6:40pm 206 10 G 15 55° 92% - - 53° 56.8° 46.4° - - 1007.0
2/27 6:30pm 210 12 G 19 55° 95% - - 53° 56.8° 46.4° - - 1008.0
2/27 6:20pm 222 13 G 25 55° 95% - - 53° 56.8° 46.4° - - 1008.0
2/27 6:10pm 221 10 G 22 55° 94% - - 53° 56.8° 46.4° - - 1008.0
2/27 6:00pm 218 13 G 21 55° 95% - - 53° 56.8° 46.4° - - 1008.0
2/27 5:50pm 226 11 G 19 54° 96% - - 53° 56.8° 46.4° - - 1008.0
2/27 5:40pm 220 13 G 24 54° 94% - - 53° 56.8° 46.4° - - 1008.0
2/27 5:30pm 225 15 G 22 55° 95% - - 53° 56.8° 46.4° - - 1008.0
2/27 5:20pm 214 15 G 24 55° 94% - - 53° 56.8° 46.4° - - 1007.0
2/27 5:10pm 196 14 G 25 55° 93% - - 53° 56.8° 46.4° - - 1007.0
2/27 5:00pm 209 17 G 25 55° 89% - - 52° 56.8° 46.4° - - 1007.0
2/27 4:50pm 209 17 G 26 55° 88% - - 52° 56.8° 46.4° - - 1007.0
2/27 4:40pm 212 19 G 29 55° 91% - - 52° 56.8° 46.4° - - 1007.0
2/27 4:30pm 214 19 G 27 55° 93% - - 53° 56.8° 46.4° - - 1007.0
2/27 4:20pm 208 18 G 31 55° 91% - - 53° 56.8° 46.4° - - 1008.0
2/27 4:10pm 191 16 G 27 55° 89% - - 52° 56.8° 46.4° - - 1007.0
2/27 4:00pm 202 13 G 20 56° 89% - - 52° 56.8° 46.4° - - 1008.0
2/27 3:50pm 199 13 G 21 56° 91% - - 53° 56.8° 46.4° - - 1007.0
2/27 3:40pm 202 14 G 24 55° 91% - - 53° 56.8° 46.4° - - 1008.0
2/27 3:30pm 197 16 G 28 56° 91% - - 53° 56.8° 46.4° - - 1007.0
2/27 3:20pm 198 16 G 26 56° 92% - - 53° 56.8° 46.4° - - 1007.0
2/27 3:10pm 197 16 G 28 56° 93% - - 54° 56.8° 46.4° - - 1007.0
2/27 3:00pm 199 16 G 24 56° 91% - - 53° 56.8° 46.4° - - 1007.0
2/27 2:50pm 205 20 G 28 56° 92% - - 53° 56.8° 46.4° - - 1008.0
2/27 2:40pm 206 22 G 32 56° 93% - - 54° 56.8° 46.4° - - 1008.0
2/27 2:30pm 207 24 G 41 56° 91% - - 53° 56.8° 46.4° - - 1008.0
2/27 2:20pm 202 23 G 33 56° 91% - - 53° 56.8° 46.4° - - 1008.0
2/27 2:10pm 209 24 G 41 56° 92% - - 54° 56.8° 46.4° - - 1008.0
2/27 2:00pm 208 22 G 33 56° 93% - - 54° 56.8° 46.4° - - 1008.0
2/27 1:50pm 204 17 G 25 55° 95% - - 54° 56.8° 46.4° - - 1008.0
2/27 1:40pm 212 16 G 26 56° 93% - - 54° 56.8° 46.4° - - 1008.0
2/27 1:30pm 206 20 G 31 56° 89% - - 53° 56.8° 46.4° - - 1008.0
2/27 1:20pm 209 14 G 30 56° 92% - - 53° 56.8° 46.4° - - 1008.0
2/27 1:10pm 210 17 G 27 56° 92% - - 53° 56.8° 46.4° - - 1008.0
2/27 1:00pm 209 19 G 32 56° 90% - - 53° 56.8° 46.4° - - 1009.0
2/27 12:50pm 204 20 G 37 56° 89% - - 53° 56.8° 46.4° - - 1009.0
2/27 12:40pm 205 16 G 28 56° 92% - - 54° 56.8° 46.4° - - 1009.0
2/27 12:30pm 209 16 G 28 56° 94% - - 54° 56.8° 46.4° - - 1009.0
2/27 12:20pm 212 16 G 25 56° 92% - - 53° 56.8° 46.4° - - 1009.0
2/27 12:10pm 212 16 G 27 56° 90% - - 53° 56.8° 46.4° - - 1009.0
2/27 12:00pm 198 17 G 32 56° 91% - - 53° 56.8° 46.4° - - 1009.0
2/27 11:50am 191 18 G 34 55° 91% - - 53° 56.8° 46.4° - - 1009.0
2/27 11:40am 191 19 G 31 55° 92% - - 53° 56.8° 46.4° - - 1009.0
2/27 11:30am 193 17 G 30 55° 93% - - 53° 56.8° 46.4° - - 1010.0
2/27 11:20am 194 16 G 31 55° 91% - - 53° 56.8° 46.4° - - 1010.0
2/27 11:10am 204 13 G 29 55° 91% - - 53° 56.8° 46.4° - - 1010.0
2/27 11:00am 205 14 G 25 56° 88% - - 52° 56.8° 46.4° - - 1010.0
2/27 10:50am 208 19 G 34 55° 90% - - 52° 56.8° 46.4° - - 1010.0
2/27 10:40am 207 20 G 34 56° 89% - - 52° 56.8° 46.4° - - 1010.0
2/27 10:30am 209 17 G 30 55° 94% - - 54° 56.8° 46.4° - - 1010.0
2/27 10:20am 210 19 G 31 56° 94% - - 54° 56.8° 46.4° - - 1010.0
2/27 10:10am 216 16 G 28 56° 94% - - 54° 56.8° 46.4° - - 1010.0
2/27 10:00am 212 14 G 23 56° 95% - - 54° 56.8° 46.4° - - 1010.0
2/27 9:50am 211 15 G 27 56° 95% - - 54° 56.8° 46.4° - - 1010.0
2/27 9:40am 217 14 G 23 56° 94% - - 54° 56.8° 46.4° - - 1010.0
2/27 9:30am 213 16 G 26 56° 93% - - 54° 56.8° 46.4° - - 1010.0
2/27 9:20am 215 17 G 26 56° 92% - - 54° 56.8° 46.4° - - 1010.0
2/27 9:10am 209 15 G 22 56° 91% - - 54° 56.8° 46.4° - - 1009.0
2/27 9:00am 204 17 G 26 56° 90% - - 53° 56.8° 46.4° - - 1009.0
2/27 8:50am 209 17 G 26 56° 89% - - 53° 56.8° 46.4° - - 1009.0
2/27 8:40am 211 15 G 24 56° 90% - - 54° 56.8° 46.4° - - 1009.0
2/27 8:30am 207 15 G 25 56° 90% - - 54° 56.8° 46.4° - - 1009.0
2/27 8:20am 207 16 G 29 56° 91% - - 54° 56.7° 46.4° - - 1009.0
2/27 8:10am 206 15 G 31 56° 92% - - 54° 56.7° 46.4° - - 1009.0
2/27 8:00am 213 12 G 23 56° 95% - - 55° 56.6° 46.4° - - 1009.0
2/27 7:50am 211 13 G 21 56° 95% - - 55° 56.6° 46.4° - - 1009.0
2/27 7:40am 211 15 G 21 56° 93% - - 54° 56.6° 46.4° - - 1009.0
2/27 7:30am 215 14 G 26 56° 93% - - 54° 56.6° 46.4° - - 1009.0
2/27 7:20am 207 15 G 24 56° 95% - - 55° 56.6° 46.4° - - 1009.0
2/27 7:10am 201 14 G 22 56° 94% - - 55° 56.6° 46.4° - - 1009.0
2/27 7:00am 205 15 G 23 56° 94% - - 55° 56.6° 46.4° - - 1009.0
2/27 6:50am 199 14 G 21 56° 94% - - 55° 56.6° 46.4° - - 1009.0
2/27 6:40am 202 15 G 22 56° 94% - - 54° 56.6° 46.4° - - 1009.0
2/27 6:30am 202 16 G 27 56° 92% - - 54° 56.6° 46.4° - - 1009.0
2/27 6:20am 195 14 G 25 56° 94% - - 54° 56.6° 46.4° - - 1009.0
2/27 6:10am 197 11 G 19 56° 94% - - 54° 56.6° 46.4° - - 1009.0
2/27 6:00am 194 12 G 21 56° 93% - - 54° 56.6° 46.4° - - 1009.0
2/27 5:50am 208 15 G 27 56° 92% - - 54° 56.6° 46.4° - - 1009.0
2/27 5:40am 204 17 G 31 56° 93% - - 54° 56.5° 46.4° - - 1008.0
2/27 5:30am 194 12 G 23 55° 96% - - 54° 55.7° 46.4° - - 1009.0
2/27 5:20am 191 11 G 19 55° 97% - - 54° 55.2° 46.4° - - 1009.0
2/27 5:10am 192 13 G 25 55° 97% - - 54° 55.2° 46.4° - - 1009.0
2/27 5:00am 181 14 G 26 54° 97% - - 53° 54.4° 46.4° - - 1009.0
2/27 4:50am 153 8 G 19 51° 97% - - 50° 53° 46.4° - - 1009.0
2/27 4:40am 153 6 G 9 50° 97% - - 49° 49.9° 46.4° - - 1009.0
2/27 4:30am 144 6 G 10 49° 97% - - 49° 49.7° 46.4° - - 1009.0
2/27 4:20am 144 5 G 8 49° 97% - - 48° 49.4° 46.4° - - 1010.0
2/27 4:10am 139 4 G 7 49° 97% - - 48° 49.1° 46.4° - - 1010.0
2/27 4:00am 137 4 G 7 49° 97% - - 48° 49.1° 46.4° - - 1010.0
2/27 3:50am 119 4 G 7 49° 97% - - 48° 49.1° 46.4° - - 1010.0
2/27 3:40am 133 3 G 7 49° 97% - - 48° 49.1° 46.4° - - 1010.0
2/27 3:30am 130 4 G 6 49° 97% - - 48° 49° 46.4° - - 1010.0
2/27 3:20am 133 3 G 5 49° 97% - - 48° 48.9° 46.4° - - 1010.0
2/27 3:10am 145 2 G 4 48° 97% - - 47° 48.6° 46.4° - - 1011.0
2/27 3:00am 155 2 G 3 48° 96% - - 47° 48.5° 46.4° - - 1011.0
2/27 2:50am 171 1 G 2 48° 96% - - 47° 48.5° 46.4° - - 1011.0
2/27 2:40am 163 1 G 3 48° 96% - - 47° 48.4° 46.4° - - 1011.0
2/27 2:30am 144 2 G 3 48° 96% - - 47° 48.4° 46.4° - - 1011.0
2/27 2:20am 121 2 G 4 48° 96% - - 47° 48.2° 46.4° - - 1011.0
2/27 2:10am 125 2 G 4 48° 96% - - 47° 48° 46.4° - - 1012.0
2/27 2:00am 121 2 G 4 48° 96% - - 46° 47.9° 46.4° - - 1012.0
2/27 1:50am 117 3 G 4 47° 96% - - 46° 47.6° 46.4° - - 1012.0
2/27 1:40am 119 1 G 3 47° 96% - - 46° 47.4° 46.4° - - 1012.0
2/27 1:30am 113 2 G 3 47° 95% - - 46° 47.2° 46.4° - - 1012.0
2/27 1:20am 129 3 G 4 47° 95% - - 46° 47.2° 46.4° - - 1013.0
2/27 1:10am 140 3 G 5 47° 95% - - 46° 47.2° 46.4° - - 1013.0
2/27 1:00am 121 2 G 4 47° 94% - - 45° 47.1° 46.4° - - 1013.0
2/27 12:50am 138 2 G 3 47° 94% - - 45° 47.1° 46.4° - - 1013.0
2/27 12:40am 126 2 G 2 47° 93% - - 45° 47° 46.4° - - 1013.0
2/27 12:30am 131 1 G 2 47° 93% - - 45° 47° 46.4° - - 1013.0
2/27 12:20am 216 1 G 2 47° 92% - - 45° 47° 46.4° - - 1013.0
2/27 12:10am 199 1 G 2 47° 92% - - 44° 46.8° 46.4° - - 1013.0
2/27 12:00am 130 1 G 3 47° 91% - - 44° 57.1° 44.1° - - 1013.0
2/26 11:50pm 178 1 G 2 46° 91% - - 44° 57.1° 44.1° - - 1013.0
2/26 11:40pm 175 2 G 3 47° 90% - - 44° 57.1° 44.1° - - 1013.0
2/26 11:30pm 151 1 G 3 47° 90% - - 44° 57.1° 44.1° - - 1013.0
2/26 11:20pm 172 1 G 2 47° 90% - - 44° 57.1° 44.1° - - 1013.0
2/26 11:10pm 212 0 G 1 46° 91% - - 44° 57.1° 44.1° - - 1013.0
2/26 11:00pm 200 0 G 0 46° 91% - - 44° 57.1° 44.1° - - 1013.0
2/26 10:50pm 257 1 G 2 46° 91% - - 44° 57.1° 44.1° - - 1013.0
2/26 10:40pm 266 1 G 2 46° 91% - - 43° 57.1° 44.1° - - 1013.0
2/26 10:30pm 226 1 G 2 45° 91% - - 43° 57.1° 44.1° - - 1013.0
2/26 10:20pm 234 1 G 2 45° 91% - - 43° 57.1° 44.1° - - 1013.0
2/26 10:10pm 253 1 G 2 45° 90% - - 42° 57.1° 44.1° - - 1013.0
2/26 10:00pm 209 1 G 2 45° 89% - - 42° 57.1° 44.1° - - 1014.0
2/26 9:50pm 180 2 G 2 45° 88% - - 41° 57.1° 44.1° - - 1014.0
2/26 9:40pm 101 3 G 5 45° 82% - - 40° 57.1° 44.5° - - 1014.0
2/26 9:30pm 334 1 G 2 48° 80% - - 43° 57.1° 47.5° - - 1013.0
2/26 9:20pm 309 0 G 2 48° 80% - - 42° 57.1° 47.5° - - 1013.0
2/26 9:10pm 297 0 G 1 48° 80% - - 42° 57.1° 47.5° - - 1014.0
2/26 9:00pm 248 1 G 1 49° 80% - - 43° 57.1° 47.5° - - 1014.0
2/26 8:50pm 268 1 G 1 49° 80% - - 43° 57.1° 47.5° - - 1014.0
2/26 8:40pm 280 1 G 2 49° 81% - - 43° 57.1° 47.5° - - 1014.0
2/26 8:30pm 251 1 G 3 49° 81% - - 43° 57.1° 47.5° - - 1014.0
2/26 8:20pm 246 2 G 4 49° 81% - - 43° 57.1° 47.5° - - 1014.0
2/26 8:10pm 232 3 G 6 49° 81% - - 43° 57.1° 47.5° - - 1014.0
2/26 8:00pm 244 4 G 6 49° 81% - - 44° 57.1° 47.5° - - 1014.0
2/26 7:50pm 239 5 G 8 49° 82% - - 44° 57.1° 47.5° - - 1013.0
2/26 7:40pm 244 5 G 8 50° 82% - - 45° 57.1° 47.5° - - 1013.0
2/26 7:30pm 246 5 G 8 50° 82% - - 45° 57.1° 47.5° - - 1013.0
2/26 7:20pm 243 6 G 11 50° 81% - - 44° 57.1° 47.5° - - 1013.0
2/26 7:10pm 252 5 G 8 50° 80% - - 44° 57.1° 47.5° - - 1013.0
2/26 7:00pm 256 4 G 7 50° 79% - - 44° 57.1° 47.5° - - 1013.0
2/26 6:50pm 258 5 G 8 50° 77% - - 44° 57.1° 47.5° - - 1013.0
2/26 6:40pm 250 5 G 8 50° 76% - - 43° 57.1° 47.5° - - 1013.0
2/26 6:30pm 250 6 G 9 51° 76% - - 43° 57.1° 47.5° - - 1013.0
2/26 6:20pm 243 5 G 10 51° 77% - - 44° 57.1° 47.5° - - 1013.0
2/26 6:10pm 241 4 G 7 51° 80% - - 45° 57.1° 47.5° - - 1012.0
2/26 6:00pm 233 5 G 9 51° 79% - - 45° 57.1° 47.5° - - 1013.0
2/26 5:50pm 222 7 G 12 51° 77% - - 44° 57.1° 47.5° - - 1012.0
2/26 5:40pm 210 9 G 14 52° 76% - - 44° 57.1° 47.5° - - 1012.0
2/26 5:30pm 213 9 G 13 52° 72% - - 43° 57.1° 47.5° - - 1012.0
2/26 5:20pm 209 11 G 16 52° 72% - - 43° 57.1° 47.5° - - 1012.0
2/26 5:10pm 201 10 G 15 53° 71% - - 44° 57.1° 47.5° - - 1012.0
2/26 5:00pm 214 9 G 14 53° 73% - - 45° 57.1° 47.5° - - 1012.0